Terminal Aerodrome Forecast
Issued by NWS

Home | Current Version | Previous Version | Text Only | Print | Product List | Glossary On
Versions: 1 2 3 4 5 6 7 8 9 10 11 12 13
632
FTPA31 PHFO 251740
TAFHJH
TAF
PHJH 251740Z 2518/2618 08010KT P6SM SCT040
     FM252100 04014KT P6SM SCT040
     FM260400 04010KT P6SM SCT040
      AMD NOT SKED AFT 260400=

USA.gov is the U.S. government's official web portal to all federal, state and local government web resources and services.